Time;durP1;ratioP1;P1;durP2;ratioP2;P2;SDS_P1;SDS_P2;PMS_P1;PMS_P2;Temp;Humidity;BMP_temperature;BMP_pressure;BME280_temperature;BME280_humidity;BME280_pressure;Samples;Min_cycle;Max_cycle;Signal;HPM_P1;HPM_P2
2022/09/10 00:00:39;;;;;;;2.08;0.50;;;16.00;99.90;;;;;;5043141;28;20032;-73
2022/09/10 00:03:06;;;;;;;1.92;0.50;;;15.80;99.90;;;;;;5049268;28;20021;-73
2022/09/10 00:05:39;;;;;;;2.40;0.45;;;15.80;99.90;;;;;;5029617;28;20032;-74
2022/09/10 00:08:06;;;;;;;1.40;0.40;;;15.90;99.90;;;;;;5042533;28;20029;-73
2022/09/10 00:10:40;;;;;;;2.97;0.65;;;16.00;99.90;;;;;;5045962;28;20487;-73
2022/09/10 00:13:06;;;;;;;1.23;0.40;;;15.80;99.90;;;;;;5046526;28;20502;-74
2022/09/10 00:15:41;;;;;;;0.75;0.45;;;15.90;99.90;;;;;;5029799;28;20778;-73
2022/09/10 00:18:08;;;;;;;1.17;0.55;;;15.70;99.90;;;;;;5034777;28;20032;-73
2022/09/10 00:20:46;;;;;;;4.43;0.73;;;15.70;99.90;;;;;;5035070;28;20494;-73
2022/09/10 00:23:13;;;;;;;2.90;0.75;;;15.70;99.90;;;;;;5037966;28;20029;-73
2022/09/10 00:25:39;;;;;;;3.20;0.52;;;15.50;99.90;;;;;;5048502;28;20025;-73
2022/09/10 00:28:04;;;;;;;0.80;0.30;;;15.50;99.90;;;;;;5049596;28;20695;-73
2022/09/10 00:30:30;;;;;;;2.72;0.32;;;15.40;99.90;;;;;;5044383;28;20033;-73
2022/09/10 00:32:56;;;;;;;1.30;0.40;;;15.50;99.90;;;;;;5051424;28;20033;-74
2022/09/10 00:35:22;;;;;;;0.65;0.38;;;15.40;99.90;;;;;;5046819;28;20434;-74
2022/09/10 00:37:47;;;;;;;3.88;0.70;;;15.50;99.90;;;;;;5057836;28;20037;-74
2022/09/10 00:40:15;;;;;;;2.25;0.60;;;15.80;99.90;;;;;;5037005;28;20498;-73
2022/09/10 00:42:42;;;;;;;2.72;0.63;;;15.80;99.90;;;;;;5039775;28;20028;-73
2022/09/10 00:45:19;;;;;;;0.90;0.28;;;15.70;99.90;;;;;;5052223;28;20390;-73
2022/09/10 00:47:46;;;;;;;0.57;0.32;;;15.80;99.90;;;;;;5037812;28;20475;-73
2022/09/10 00:50:22;;;;;;;1.65;0.40;;;15.70;99.90;;;;;;5036127;28;20391;-73
2022/09/10 00:52:51;;;;;;;0.40;0.10;;;15.70;99.90;;;;;;5037608;28;20029;-73
2022/09/10 00:55:17;;;;;;;1.23;0.30;;;15.80;99.90;;;;;;5044858;28;20037;-74
2022/09/10 00:57:46;;;;;;;0.98;0.30;;;15.90;99.90;;;;;;5041058;28;20044;-73
2022/09/10 01:00:13;;;;;;;1.10;0.77;;;15.90;99.90;;;;;;5047700;28;20479;-73
2022/09/10 01:02:40;;;;;;;1.70;0.60;;;15.90;99.90;;;;;;5057939;28;20025;-73
2022/09/10 01:05:08;;;;;;;2.13;0.40;;;15.80;99.90;;;;;;5042210;28;20098;-73
2022/09/10 01:07:34;;;;;;;1.23;0.20;;;15.80;99.90;;;;;;5036626;28;20409;-74
2022/09/10 01:10:05;;;;;;;2.03;0.52;;;15.90;99.90;;;;;;5045983;28;20033;-74
2022/09/10 01:13:05;;;;;;;1.02;0.30;;;15.90;99.90;;;;;;5057381;28;20079;-74
2022/09/10 01:16:06;;;;;;;0.88;0.25;;;16.00;99.90;;;;;;5037772;28;20113;-74
2022/09/10 01:18:56;;;;;;;1.02;0.35;;;15.90;99.90;;;;;;5038075;28;20496;-73
2022/09/10 01:21:31;;;;;;;0.22;0.22;;;16.00;99.90;;;;;;5037496;28;20040;-73
2022/09/10 01:24:18;;;;;;;3.15;0.38;;;16.00;99.90;;;;;;5050270;28;20574;-74
2022/09/10 01:27:02;;;;;;;1.05;0.30;;;15.90;99.90;;;;;;5042778;28;20033;-73
2022/09/10 01:29:34;;;;;;;0.50;0.22;;;15.80;99.90;;;;;;5039158;28;20049;-74
2022/09/10 01:32:11;;;;;;;1.10;0.40;;;15.80;99.90;;;;;;5054115;28;20075;-73
2022/09/10 01:34:46;;;;;;;1.05;0.30;;;16.00;99.90;;;;;;5037169;28;20788;-73
2022/09/10 01:37:34;;;;;;;0.47;0.20;;;15.90;99.90;;;;;;5039991;28;20465;-73
2022/09/10 01:40:02;;;;;;;1.23;0.20;;;15.90;99.90;;;;;;5034072;28;20037;-73
2022/09/10 01:42:28;;;;;;;1.75;0.32;;;15.90;99.90;;;;;;5035208;28;20040;-73
2022/09/10 01:44:58;;;;;;;1.15;0.28;;;16.00;99.90;;;;;;5043814;28;20102;-73
2022/09/10 01:47:49;;;;;;;0.30;0.20;;;15.90;99.90;;;;;;5036604;28;20029;-73
2022/09/10 01:50:33;;;;;;;1.40;0.50;;;15.80;99.90;;;;;;5032308;28;20029;-73
2022/09/10 01:53:22;;;;;;;;;;;15.90;99.90;;;;;;5033739;28;20040;-73
2022/09/10 01:56:03;;;;;;;2.53;0.40;;;15.90;99.90;;;;;;5034259;28;19921;-73
2022/09/10 01:58:38;;;;;;;0.63;0.20;;;15.80;99.90;;;;;;5034171;28;20090;-73
2022/09/10 02:01:25;;;;;;;2.28;0.68;;;15.60;99.90;;;;;;5053179;28;20025;-73
2022/09/10 02:03:55;;;;;;;2.88;0.47;;;15.60;99.90;;;;;;5046629;28;20436;-73
2022/09/10 02:06:26;;;;;;;1.73;0.60;;;15.70;99.90;;;;;;5033288;28;20029;-73
2022/09/10 02:08:53;;;;;;;2.28;0.60;;;15.70;99.90;;;;;;5046805;28;20143;-73
2022/09/10 02:11:20;;;;;;;0.43;0.30;;;15.70;99.90;;;;;;5053495;28;20040;-73
2022/09/10 02:13:46;;;;;;;1.27;0.50;;;15.70;99.90;;;;;;5039942;28;20206;-73
2022/09/10 02:16:15;;;;;;;1.15;0.20;;;15.60;99.90;;;;;;5041550;28;20064;-73
2022/09/10 02:18:42;;;;;;;0.50;0.30;;;15.40;99.90;;;;;;5038992;28;20119;-73
2022/09/10 02:21:10;;;;;;;1.48;0.47;;;15.30;99.90;;;;;;5033742;28;20086;-73
2022/09/10 02:23:43;;;;;;;1.58;0.45;;;15.40;99.90;;;;;;5028697;28;20107;-74
2022/09/10 02:26:09;;;;;;;0.80;0.35;;;15.60;99.90;;;;;;5035764;28;20382;-73
2022/09/10 02:28:36;;;;;;;1.63;0.55;;;15.60;99.90;;;;;;5049653;28;20040;-73
2022/09/10 02:31:01;;;;;;;3.22;0.73;;;15.70;99.90;;;;;;5034764;28;20716;-73
2022/09/10 02:33:27;;;;;;;1.33;0.50;;;15.60;99.90;;;;;;5032990;28;20158;-73
2022/09/10 02:35:54;;;;;;;0.30;0.22;;;15.60;99.90;;;;;;5044863;28;20037;-73
2022/09/10 02:38:20;;;;;;;0.77;0.30;;;15.40;99.90;;;;;;5041325;28;20448;-73
2022/09/10 02:40:48;;;;;;;0.45;0.10;;;15.40;99.90;;;;;;5032552;28;20467;-73
2022/09/10 02:43:16;;;;;;;0.28;0.10;;;15.40;99.90;;;;;;5052512;28;20041;-73
2022/09/10 02:45:42;;;;;;;0.95;0.35;;;15.40;99.90;;;;;;5048538;28;20025;-73
2022/09/10 02:48:08;;;;;;;0.90;0.40;;;15.40;99.90;;;;;;5039752;28;20509;-74
2022/09/10 02:50:34;;;;;;;1.55;0.50;;;15.50;99.90;;;;;;5049094;28;20049;-73
2022/09/10 02:53:02;;;;;;;2.75;0.57;;;15.60;99.90;;;;;;5039772;28;20062;-73
2022/09/10 02:55:28;;;;;;;0.38;0.20;;;15.30;99.90;;;;;;5032129;28;20037;-75
2022/09/10 02:57:54;;;;;;;2.72;0.40;;;15.40;99.90;;;;;;5032132;28;20391;-73
2022/09/10 03:00:21;;;;;;;1.02;0.28;;;15.50;99.90;;;;;;5032481;28;20120;-72
2022/09/10 03:02:49;;;;;;;0.77;0.43;;;15.40;99.90;;;;;;5043893;28;20036;-73
2022/09/10 03:05:16;;;;;;;1.02;0.32;;;15.50;99.90;;;;;;5035648;28;20074;-73
2022/09/10 03:07:42;;;;;;;0.52;0.17;;;15.40;99.90;;;;;;5041081;28;20029;-73
2022/09/10 03:10:09;;;;;;;0.90;0.28;;;15.20;99.90;;;;;;5035192;28;20029;-73
2022/09/10 03:12:35;;;;;;;2.85;0.50;;;15.40;99.90;;;;;;5040717;28;20075;-73
2022/09/10 03:15:01;;;;;;;1.50;0.40;;;15.50;99.90;;;;;;5027440;28;20041;-73
2022/09/10 03:17:26;;;;;;;2.10;0.35;;;15.20;99.90;;;;;;5036238;28;20099;-73
2022/09/10 03:19:52;;;;;;;2.42;0.30;;;15.00;99.90;;;;;;5032576;28;21863;-73
2022/09/10 03:22:18;;;;;;;1.52;0.50;;;15.00;99.90;;;;;;5038213;28;20468;-73
2022/09/10 03:24:45;;;;;;;0.90;0.43;;;14.90;99.90;;;;;;5025841;28;20193;-73
2022/09/10 03:27:12;;;;;;;0.98;0.20;;;15.00;99.90;;;;;;5027221;28;20602;-73
2022/09/10 03:29:38;;;;;;;3.05;0.40;;;15.10;99.90;;;;;;5026008;28;20083;-73
2022/09/10 03:32:04;;;;;;;0.95;0.28;;;15.10;99.90;;;;;;5030552;28;20040;-73
2022/09/10 03:34:29;;;;;;;2.00;0.50;;;15.10;99.90;;;;;;5045145;28;20102;-73
2022/09/10 03:36:55;;;;;;;0.60;0.10;;;15.30;99.90;;;;;;5026524;28;20042;-73
2022/09/10 03:39:21;;;;;;;0.75;0.30;;;15.30;99.90;;;;;;5027953;28;20530;-73
2022/09/10 03:41:46;;;;;;;0.77;0.35;;;15.20;99.90;;;;;;5025281;28;20033;-73
2022/09/10 03:44:12;;;;;;;0.80;0.30;;;15.20;99.90;;;;;;5027392;28;20549;-73
2022/09/10 03:46:38;;;;;;;3.42;0.40;;;15.20;99.90;;;;;;5031079;28;20530;-73
2022/09/10 03:49:05;;;;;;;2.20;0.40;;;15.10;99.90;;;;;;5026356;28;20652;-73
2022/09/10 03:51:30;;;;;;;1.67;0.40;;;15.10;99.90;;;;;;5036768;28;20045;-74
2022/09/10 03:53:58;;;;;;;1.27;0.20;;;15.10;99.90;;;;;;5046210;28;20061;-73
2022/09/10 03:56:24;;;;;;;1.27;0.40;;;15.10;99.90;;;;;;5039783;28;20363;-73
2022/09/10 03:58:50;;;;;;;1.23;0.40;;;15.10;99.90;;;;;;5027430;28;20018;-73
2022/09/10 04:01:17;;;;;;;1.55;0.40;;;15.10;99.90;;;;;;5022438;28;20029;-73
2022/09/10 04:03:43;;;;;;;0.80;0.30;;;15.10;99.90;;;;;;5023645;28;20038;-73
2022/09/10 04:06:14;;;;;;;1.00;0.43;;;14.80;99.90;;;;;;5032539;28;20036;-73
2022/09/10 04:08:42;;;;;;;1.50;0.43;;;14.90;99.90;;;;;;5042064;28;20025;-73
2022/09/10 04:11:08;;;;;;;0.65;0.30;;;14.90;99.90;;;;;;5035534;28;20065;-73
2022/09/10 04:13:34;;;;;;;1.38;0.70;;;14.90;99.90;;;;;;5022856;28;20087;-73
2022/09/10 04:16:00;;;;;;;0.77;0.50;;;15.00;99.90;;;;;;5033108;28;20041;-73
2022/09/10 04:18:28;;;;;;;1.27;0.50;;;14.90;99.90;;;;;;5024008;28;20461;-73
2022/09/10 04:20:55;;;;;;;1.42;0.40;;;14.90;99.90;;;;;;5029127;28;20041;-73
2022/09/10 04:23:21;;;;;;;1.42;0.35;;;14.70;99.90;;;;;;5024870;28;20091;-73
2022/09/10 04:25:48;;;;;;;1.42;0.47;;;14.60;99.90;;;;;;5037115;28;20033;-73
2022/09/10 04:28:13;;;;;;;0.75;0.25;;;14.40;99.90;;;;;;5024022;28;20037;-73
2022/09/10 04:30:39;;;;;;;1.50;0.40;;;14.30;99.90;;;;;;5037949;28;20025;-73
2022/09/10 04:33:05;;;;;;;0.80;0.40;;;14.50;99.90;;;;;;5027874;28;20029;-73
2022/09/10 04:35:31;;;;;;;0.60;0.30;;;14.60;99.90;;;;;;5038810;28;20124;-72
2022/09/10 04:37:57;;;;;;;0.82;0.45;;;14.40;99.90;;;;;;5023385;28;20104;-73
2022/09/10 04:40:22;;;;;;;3.92;0.40;;;14.00;99.90;;;;;;5030319;28;20029;-73
2022/09/10 04:42:48;;;;;;;0.75;0.30;;;13.90;99.90;;;;;;5040341;28;20120;-73
2022/09/10 04:45:14;;;;;;;2.95;0.47;;;13.90;99.90;;;;;;5023182;28;20036;-73
2022/09/10 04:47:39;;;;;;;0.80;0.30;;;13.90;99.90;;;;;;5022550;28;20605;-73
2022/09/10 04:50:06;;;;;;;2.25;0.68;;;13.90;99.90;;;;;;5023727;28;20095;-73
2022/09/10 04:52:32;;;;;;;1.63;0.38;;;13.90;99.90;;;;;;5032195;28;20104;-73
2022/09/10 04:54:58;;;;;;;1.30;0.50;;;13.90;99.90;;;;;;5027596;28;20120;-73
2022/09/10 04:57:24;;;;;;;0.77;0.40;;;14.10;99.90;;;;;;5022080;28;20084;-73
2022/09/10 04:59:52;;;;;;;2.45;0.65;;;14.20;99.90;;;;;;5021797;28;20061;-73
2022/09/10 05:02:18;;;;;;;3.45;0.40;;;14.40;99.90;;;;;;5028662;28;20033;-73
2022/09/10 05:04:44;;;;;;;2.90;0.57;;;14.40;99.90;;;;;;5038261;28;20025;-73
2022/09/10 05:07:10;;;;;;;0.85;0.40;;;14.30;99.90;;;;;;5044486;28;20036;-73
2022/09/10 05:09:35;;;;;;;2.67;0.35;;;14.30;99.90;;;;;;5036275;28;20039;-73
2022/09/10 05:12:02;;;;;;;3.85;0.60;;;14.10;99.90;;;;;;5039552;28;20057;-73
2022/09/10 05:14:28;;;;;;;1.40;0.60;;;14.20;99.90;;;;;;5033229;28;20091;-73
2022/09/10 05:16:54;;;;;;;1.67;0.55;;;14.10;99.90;;;;;;5037196;28;20036;-73
2022/09/10 05:19:20;;;;;;;1.23;0.50;;;14.30;99.90;;;;;;5026311;28;20140;-73
2022/09/10 05:21:47;;;;;;;0.95;0.60;;;14.20;99.90;;;;;;5032403;28;20072;-73
2022/09/10 05:24:13;;;;;;;2.83;0.57;;;14.20;99.90;;;;;;5029949;28;20060;-73
2022/09/10 05:26:40;;;;;;;7.72;1.38;;;14.40;99.90;;;;;;5035276;28;20440;-73
2022/09/10 05:29:06;;;;;;;1.05;0.40;;;14.30;99.90;;;;;;5038652;28;20079;-73
2022/09/10 05:31:34;;;;;;;0.98;0.32;;;14.30;99.90;;;;;;5026173;28;20037;-73
2022/09/10 05:34:00;;;;;;;1.90;0.80;;;14.40;99.90;;;;;;5028410;28;20093;-73
2022/09/10 05:36:27;;;;;;;1.35;0.60;;;14.40;99.90;;;;;;5034435;28;20498;-73
2022/09/10 05:38:53;;;;;;;1.58;0.57;;;14.30;99.90;;;;;;5046085;28;20033;-73
2022/09/10 05:41:20;;;;;;;2.10;0.65;;;14.30;99.90;;;;;;5026770;28;20041;-73
2022/09/10 05:43:46;;;;;;;0.55;0.40;;;14.20;99.90;;;;;;5035074;28;20922;-73
2022/09/10 05:46:12;;;;;;;3.45;0.60;;;14.10;99.90;;;;;;5044513;28;20060;-73
2022/09/10 05:48:39;;;;;;;1.25;0.70;;;14.30;99.90;;;;;;5045983;28;20427;-72
2022/09/10 05:51:06;;;;;;;2.58;0.60;;;14.20;99.90;;;;;;5034292;28;20040;-77
2022/09/10 05:53:32;;;;;;;1.75;0.50;;;14.10;99.90;;;;;;5035488;28;20727;-77
2022/09/10 05:55:58;;;;;;;0.40;0.25;;;13.90;99.90;;;;;;5026706;28;20049;-75
2022/09/10 05:58:26;;;;;;;2.25;0.70;;;13.90;99.90;;;;;;5037922;28;20056;-75
2022/09/10 06:00:53;;;;;;;12.20;1.00;;;13.90;99.90;;;;;;5037737;28;20025;-75
2022/09/10 06:03:19;;;;;;;1.42;0.40;;;13.90;99.90;;;;;;5039114;28;20032;-75
2022/09/10 06:05:49;;;;;;;2.33;0.60;;;13.80;99.90;;;;;;5045661;28;20164;-75
2022/09/10 06:08:21;;;;;;;1.92;0.63;;;13.90;99.90;;;;;;5043917;28;20037;-75
2022/09/10 06:10:59;;;;;;;3.05;0.50;;;13.80;99.90;;;;;;5041490;28;20032;-76
2022/09/10 06:13:25;;;;;;;2.53;0.50;;;13.80;99.90;;;;;;5028802;28;20621;-75
2022/09/10 06:15:52;;;;;;;1.90;0.60;;;14.00;99.90;;;;;;5038339;28;20076;-76
2022/09/10 06:18:18;;;;;;;2.40;0.40;;;14.10;99.90;;;;;;5027393;28;20037;-75
2022/09/10 06:20:44;;;;;;;0.80;0.35;;;14.40;99.90;;;;;;5033650;28;20029;-74
2022/09/10 06:23:10;;;;;;;5.00;0.63;;;14.50;99.90;;;;;;5028435;28;20029;-74
2022/09/10 06:25:36;;;;;;;0.70;0.40;;;14.60;99.90;;;;;;5030640;28;20029;-73
2022/09/10 06:28:02;;;;;;;0.45;0.30;;;14.70;99.90;;;;;;5037304;28;20033;-73
2022/09/10 06:30:27;;;;;;;2.05;0.40;;;14.80;99.90;;;;;;5031714;28;20084;-74
2022/09/10 06:32:53;;;;;;;2.60;0.60;;;14.70;99.90;;;;;;5037292;28;20057;-73
2022/09/10 06:35:19;;;;;;;0.98;0.40;;;14.70;99.90;;;;;;5026378;28;20118;-73
2022/09/10 06:37:44;;;;;;;1.83;0.40;;;14.80;99.90;;;;;;5033861;28;20494;-73
2022/09/10 06:40:10;;;;;;;0.40;0.32;;;14.80;99.90;;;;;;5032760;28;20464;-74
2022/09/10 06:42:37;;;;;;;1.02;0.60;;;15.00;99.90;;;;;;5041969;28;20354;-74
2022/09/10 06:45:03;;;;;;;4.07;0.60;;;15.40;99.90;;;;;;5033930;28;20033;-74
2022/09/10 06:47:30;;;;;;;0.95;0.30;;;15.50;99.90;;;;;;5035848;28;20044;-73
2022/09/10 06:49:55;;;;;;;0.55;0.25;;;15.90;99.90;;;;;;5026406;28;20065;-74
2022/09/10 06:52:21;;;;;;;0.75;0.20;;;15.40;99.90;;;;;;5025245;28;20170;-75
2022/09/10 06:54:47;;;;;;;0.65;0.30;;;15.30;99.90;;;;;;5029698;28;20025;-74
2022/09/10 06:57:12;;;;;;;1.10;0.38;;;15.30;99.90;;;;;;5043898;28;20051;-75
2022/09/10 06:59:38;;;;;;;0.38;0.20;;;16.50;99.90;;;;;;5041580;28;20028;-74
2022/09/10 07:02:04;;;;;;;1.05;0.30;;;19.20;99.90;;;;;;5028254;28;20100;-75
2022/09/10 07:04:30;;;;;;;1.27;0.30;;;20.90;99.70;;;;;;5035825;28;20032;-75
2022/09/10 07:06:56;;;;;;;1.65;0.75;;;21.80;96.20;;;;;;5041258;28;20033;-75
2022/09/10 07:09:22;;;;;;;0.77;0.30;;;21.70;95.70;;;;;;5040647;28;20060;-75
2022/09/10 07:11:47;;;;;;;0.52;0.40;;;22.20;95.80;;;;;;5032664;28;20455;-75
2022/09/10 07:14:13;;;;;;;1.65;0.40;;;22.60;96.20;;;;;;5039589;28;20032;-75
2022/09/10 07:16:43;;;;;;;0.20;0.10;;;20.50;97.50;;;;;;5029415;28;20052;-75
2022/09/10 07:19:12;;;;;;;0.65;0.30;;;18.80;99.90;;;;;;5026966;28;20064;-74
2022/09/10 07:21:38;;;;;;;1.45;0.30;;;17.60;99.90;;;;;;5032662;28;20044;-74
2022/09/10 07:24:04;;;;;;;1.63;0.60;;;16.80;99.90;;;;;;5039890;28;20127;-75
2022/09/10 07:26:31;;;;;;;2.33;0.28;;;16.40;99.90;;;;;;5036899;28;20045;-74
2022/09/10 07:28:57;;;;;;;1.25;0.45;;;16.10;99.90;;;;;;5027897;28;20079;-74
2022/09/10 07:31:29;;;;;;;1.95;0.20;;;16.00;99.90;;;;;;5030406;28;20117;-75
2022/09/10 07:33:59;;;;;;;2.42;0.50;;;15.80;99.90;;;;;;5036799;28;20123;-74
2022/09/10 07:36:25;;;;;;;0.65;0.25;;;15.80;99.90;;;;;;5034723;28;20104;-74
2022/09/10 07:39:02;;;;;;;1.13;0.35;;;15.90;99.90;;;;;;5036784;28;20525;-74
2022/09/10 07:41:30;;;;;;;0.52;0.30;;;15.90;99.90;;;;;;5035185;28;20087;-73
2022/09/10 07:43:56;;;;;;;10.68;1.25;;;16.00;99.90;;;;;;5028432;28;20676;-74
2022/09/10 07:46:24;;;;;;;0.80;0.30;;;16.90;99.90;;;;;;5044924;28;20592;-73
2022/09/10 07:48:55;;;;;;;0.85;0.38;;;16.50;99.90;;;;;;5039676;28;20032;-74
2022/09/10 07:51:22;;;;;;;5.03;0.65;;;16.40;99.90;;;;;;5028078;28;20033;-74
2022/09/10 07:53:55;;;;;;;0.28;0.15;;;16.30;99.90;;;;;;5034369;28;20475;-74
2022/09/10 07:56:22;;;;;;;1.73;0.50;;;16.20;99.90;;;;;;5034012;28;20507;-73
2022/09/10 07:58:48;;;;;;;0.25;0.22;;;16.30;99.90;;;;;;5027532;28;20053;-74
2022/09/10 08:01:14;;;;;;;0.35;0.28;;;16.20;99.90;;;;;;5027938;28;20025;-74
2022/09/10 08:03:40;;;;;;;1.33;0.35;;;16.30;99.90;;;;;;5031247;28;20091;-74
2022/09/10 08:06:07;;;;;;;2.10;0.43;;;16.30;99.90;;;;;;5028246;28;20040;-74
2022/09/10 08:08:36;;;;;;;1.10;0.47;;;16.40;99.90;;;;;;5035767;28;20055;-74
2022/09/10 08:11:13;;;;;;;3.08;0.57;;;16.40;99.90;;;;;;5033677;28;20037;-74
2022/09/10 08:13:44;;;;;;;1.45;0.32;;;16.60;99.90;;;;;;5030934;28;20464;-73
2022/09/10 08:16:12;;;;;;;2.05;0.22;;;16.70;99.90;;;;;;5047279;28;20154;-73
2022/09/10 08:18:38;;;;;;;1.20;0.50;;;16.80;99.90;;;;;;5040798;28;20440;-74
2022/09/10 08:21:07;;;;;;;0.38;0.20;;;16.80;99.90;;;;;;5027637;28;20116;-74
2022/09/10 08:23:33;;;;;;;3.53;0.32;;;16.90;99.90;;;;;;5026579;28;20043;-74
2022/09/10 08:25:59;;;;;;;3.42;1.00;;;16.80;99.90;;;;;;5027409;28;20033;-74
2022/09/10 08:28:26;;;;;;;0.88;0.40;;;17.00;99.90;;;;;;5027295;28;20124;-74
2022/09/10 08:31:11;;;;;;;0.90;0.35;;;17.00;99.90;;;;;;5027276;28;20025;-73
2022/09/10 08:33:38;;;;;;;2.15;0.50;;;16.80;99.90;;;;;;5044786;28;20025;-74
2022/09/10 08:36:13;;;;;;;1.48;0.32;;;16.80;99.90;;;;;;5032040;28;20047;-74
2022/09/10 08:38:40;;;;;;;0.82;0.32;;;16.90;99.90;;;;;;5026644;28;20132;-74
2022/09/10 08:41:34;;;;;;;2.50;0.45;;;17.10;99.90;;;;;;5031825;28;20112;-74
2022/09/10 08:44:09;;;;;;;1.20;0.50;;;17.20;99.90;;;;;;5048376;28;20505;-73
2022/09/10 08:46:47;;;;;;;1.42;0.40;;;17.20;99.90;;;;;;5034593;28;20279;-74
2022/09/10 08:49:22;;;;;;;1.90;0.47;;;17.20;99.90;;;;;;5041994;28;20025;-74
2022/09/10 08:52:00;;;;;;;4.88;1.25;;;17.10;99.90;;;;;;5037841;28;20034;-74
2022/09/10 08:54:33;;;;;;;1.05;0.40;;;17.20;99.90;;;;;;5031264;28;20029;-74
2022/09/10 08:57:00;;;;;;;0.63;0.35;;;17.40;99.90;;;;;;5033237;28;20045;-73
2022/09/10 08:59:32;;;;;;;0.40;0.20;;;17.80;99.90;;;;;;5031094;28;20029;-75
2022/09/10 09:02:21;;;;;;;1.13;0.30;;;20.90;99.30;;;;;;5030864;28;20033;-74
2022/09/10 09:04:53;;;;;;;0.55;0.25;;;23.30;96.10;;;;;;5038498;28;20033;-74
2022/09/10 09:07:20;;;;;;;0.88;0.30;;;24.40;94.30;;;;;;5050916;28;20071;-74
2022/09/10 09:09:50;;;;;;;4.35;0.52;;;24.90;95.10;;;;;;5050155;28;20392;-73
2022/09/10 09:12:32;;;;;;;1.23;0.32;;;24.70;94.30;;;;;;5045886;28;20077;-74
2022/09/10 09:15:00;;;;;;;0.85;0.40;;;25.60;95.10;;;;;;5029604;28;20030;-74
2022/09/10 09:17:51;;;;;;;1.95;0.47;;;25.20;93.50;;;;;;5027477;28;20037;-74
2022/09/10 09:20:18;;;;;;;0.98;0.40;;;25.40;92.60;;;;;;5026654;28;20033;-74
2022/09/10 09:22:55;;;;;;;0.47;0.25;;;25.50;91.90;;;;;;5027653;28;20108;-74
2022/09/10 09:25:31;;;;;;;0.57;0.30;;;25.90;91.30;;;;;;5026955;28;20524;-73
2022/09/10 09:27:57;;;;;;;1.10;0.30;;;25.60;92.30;;;;;;5027510;28;20108;-73
2022/09/10 09:30:48;;;;;;;4.88;0.50;;;25.10;93.20;;;;;;5027312;28;20040;-73
2022/09/10 09:33:16;;;;;;;2.15;0.22;;;25.90;92.10;;;;;;5027279;28;20034;-74
2022/09/10 09:36:02;;;;;;;2.70;0.75;;;26.20;92.30;;;;;;5027729;28;20064;-74
2022/09/10 09:38:33;;;;;;;2.15;0.25;;;26.00;92.10;;;;;;5028426;28;20079;-74
2022/09/10 09:41:14;;;;;;;0.43;0.30;;;26.20;92.30;;;;;;5028781;28;20071;-74
2022/09/10 09:43:55;;;;;;;0.80;0.35;;;25.40;93.20;;;;;;5040207;28;20025;-75
2022/09/10 09:46:23;;;;;;;1.92;0.40;;;24.80;92.90;;;;;;5063516;28;20037;-74
2022/09/10 09:48:53;;;;;;;0.22;0.20;;;23.60;93.60;;;;;;5049996;28;20061;-74
2022/09/10 09:51:20;;;;;;;1.98;0.57;;;22.30;94.70;;;;;;5045147;28;20029;-74
2022/09/10 09:54:02;;;;;;;6.00;0.77;;;21.60;96.10;;;;;;5036648;28;20056;-74
2022/09/10 09:56:38;;;;;;;1.52;0.32;;;21.40;95.80;;;;;;5027047;28;20045;-73
2022/09/10 09:59:11;;;;;;;1.17;0.30;;;21.00;95.60;;;;;;5044844;28;20052;-73
2022/09/10 10:01:41;;;;;;;0.77;0.47;;;20.60;96.70;;;;;;5035059;28;20620;-74
2022/09/10 10:04:25;;;;;;;6.15;0.35;;;20.70;97.00;;;;;;5026764;28;20938;-74
2022/09/10 10:06:56;;;;;;;1.88;0.30;;;20.90;97.10;;;;;;5026056;28;20037;-73
2022/09/10 10:09:26;;;;;;;0.20;0.10;;;20.90;97.20;;;;;;5029604;28;20030;-73
2022/09/10 10:11:53;;;;;;;2.05;0.40;;;20.50;96.60;;;;;;5025238;28;20152;-74
2022/09/10 10:14:21;;;;;;;0.80;0.30;;;20.50;96.60;;;;;;5026432;28;20504;-74
2022/09/10 10:16:53;;;;;;;2.03;0.32;;;20.50;96.30;;;;;;5026559;28;20605;-73
2022/09/10 10:19:34;;;;;;;2.60;0.95;;;20.30;96.20;;;;;;5026930;28;20029;-74
2022/09/10 10:22:17;;;;;;;0.35;0.20;;;20.40;96.50;;;;;;5026273;28;20107;-73
2022/09/10 10:24:45;;;;;;;1.65;0.73;;;20.40;96.80;;;;;;5029200;28;20187;-74
2022/09/10 10:27:23;;;;;;;0.90;0.40;;;20.90;98.10;;;;;;5029090;28;20033;-73
2022/09/10 10:30:06;;;;;;;0.82;0.40;;;20.80;96.40;;;;;;5028030;28;22078;-73
2022/09/10 10:32:40;;;;;;;0.70;0.25;;;20.90;96.60;;;;;;5028642;28;20577;-73
2022/09/10 10:35:15;;;;;;;0.60;0.20;;;21.00;96.40;;;;;;5028823;28;20068;-73
2022/09/10 10:38:02;;;;;;;0.25;0.25;;;21.10;96.50;;;;;;5041140;28;20051;-74
2022/09/10 10:40:42;;;;;;;2.72;0.47;;;21.00;96.00;;;;;;5045739;28;20112;-74
2022/09/10 10:43:23;;;;;;;0.68;0.30;;;21.10;95.50;;;;;;5048123;28;20033;-74
2022/09/10 10:46:04;;;;;;;1.85;0.38;;;21.20;96.60;;;;;;5040175;28;20113;-73
2022/09/10 10:48:55;;;;;;;1.60;0.47;;;21.40;95.70;;;;;;5028432;28;20065;-74
2022/09/10 10:51:52;;;;;;;5.82;0.90;;;21.40;95.10;;;;;;5046427;28;20405;-74
2022/09/10 10:54:37;;;;;;;1.52;0.40;;;21.70;96.60;;;;;;5048335;28;20033;-74
2022/09/10 10:57:25;;;;;;;;;;;21.50;95.00;;;;;;5028809;28;20124;-74
2022/09/10 10:59:56;;;;;;;1.55;0.60;;;21.50;95.00;;;;;;5028390;28;19911;-73
2022/09/10 11:02:28;;;;;;;1.90;0.70;;;21.30;94.80;;;;;;5027131;28;20415;-74
2022/09/10 11:04:57;;;;;;;1.98;0.55;;;21.40;96.10;;;;;;5027775;28;20039;-74
2022/09/10 11:07:49;;;;;;;1.92;0.50;;;21.80;96.30;;;;;;5028319;28;20052;-73
2022/09/10 11:10:40;;;;;;;2.78;0.35;;;22.30;95.50;;;;;;5046844;28;20372;-74
2022/09/10 11:13:33;;;;;;;0.80;0.20;;;22.60;95.60;;;;;;5042603;28;20049;-73
2022/09/10 11:16:03;;;;;;;2.28;0.40;;;22.60;94.70;;;;;;5047612;28;20048;-74
2022/09/10 11:18:35;;;;;;;0.70;0.30;;;22.60;94.90;;;;;;5042747;28;20087;-74
2022/09/10 11:21:07;;;;;;;1.77;0.40;;;22.60;95.00;;;;;;5027975;28;20032;-75
2022/09/10 11:24:02;;;;;;;0.20;0.10;;;22.80;95.10;;;;;;5027866;28;20045;-73
2022/09/10 11:26:37;;;;;;;1.15;0.30;;;22.80;95.70;;;;;;5042878;28;20033;-73
2022/09/10 11:29:35;;;;;;;0.82;0.20;;;22.70;94.50;;;;;;5047954;28;20044;-73
2022/09/10 11:32:25;;;;;;;1.60;0.30;;;22.50;94.80;;;;;;5046511;28;20102;-73
2022/09/10 11:35:15;;;;;;;0.90;0.30;;;22.80;95.00;;;;;;5031729;28;20498;-74
2022/09/10 11:38:21;;;;;;;0.98;0.22;;;22.80;95.50;;;;;;5027498;28;20033;-74
2022/09/10 11:41:04;;;;;;;1.35;0.40;;;22.70;94.60;;;;;;5027647;28;20125;-73
2022/09/10 11:43:41;;;;;;;1.13;0.35;;;22.60;95.00;;;;;;5026980;28;20375;-74
2022/09/10 11:46:14;;;;;;;3.10;0.43;;;22.50;94.80;;;;;;5027478;28;20033;-73
2022/09/10 11:49:02;;;;;;;0.60;0.20;;;22.70;94.90;;;;;;5026940;28;20503;-73
2022/09/10 11:51:32;;;;;;;1.70;0.30;;;22.80;94.90;;;;;;5027157;28;20683;-73
2022/09/10 11:53:59;;;;;;;0.47;0.20;;;22.80;94.90;;;;;;5034043;28;20104;-73
2022/09/10 11:56:28;;;;;;;0.55;0.30;;;22.90;94.40;;;;;;5027055;28;20132;-74
2022/09/10 11:59:14;;;;;;;4.15;0.50;;;23.00;93.40;;;;;;5043552;28;20033;-73
2022/09/10 12:01:47;;;;;;;0.57;0.40;;;23.20;94.90;;;;;;5034535;28;20041;-74
2022/09/10 12:04:44;;;;;;;8.65;0.98;;;23.10;93.80;;;;;;5027228;28;20037;-74
2022/09/10 12:07:27;;;;;;;1.23;0.40;;;23.20;94.80;;;;;;5046779;28;20029;-74
2022/09/10 12:10:08;;;;;;;2.10;0.38;;;23.70;95.30;;;;;;5043457;28;20108;-74
2022/09/10 12:12:47;;;;;;;0.98;0.40;;;23.60;94.00;;;;;;5026643;28;20054;-74
2022/09/10 12:15:30;;;;;;;2.92;0.55;;;23.80;93.90;;;;;;5027102;28;20033;-73
2022/09/10 12:18:00;;;;;;;1.77;0.40;;;23.90;94.40;;;;;;5040618;28;20025;-74
2022/09/10 12:20:41;;;;;;;3.65;0.38;;;24.10;95.20;;;;;;5034299;28;20068;-74
2022/09/10 12:23:23;;;;;;;2.60;0.40;;;23.90;93.60;;;;;;5044710;28;20102;-73
2022/09/10 12:26:07;;;;;;;1.17;0.30;;;23.50;93.30;;;;;;5027202;28;20037;-74
2022/09/10 12:28:41;;;;;;;2.75;0.50;;;23.80;93.90;;;;;;5026233;28;20021;-73
2022/09/10 12:31:10;;;;;;;1.92;0.30;;;24.10;93.90;;;;;;5027328;28;20044;-73
2022/09/10 12:34:06;;;;;;;0.38;0.20;;;24.20;93.80;;;;;;5027359;28;20033;-74
2022/09/10 12:36:31;;;;;;;1.10;0.30;;;24.00;92.70;;;;;;5026742;28;20045;-73
2022/09/10 12:39:19;;;;;;;1.27;0.50;;;24.00;93.10;;;;;;5026625;28;20036;-74
2022/09/10 12:41:45;;;;;;;0.88;0.40;;;23.90;92.90;;;;;;5038474;28;20453;-74
2022/09/10 12:44:33;;;;;;;0.68;0.25;;;24.00;94.20;;;;;;5043855;28;20033;-73
2022/09/10 12:47:17;;;;;;;1.27;0.30;;;24.50;93.60;;;;;;5029069;28;20048;-74
2022/09/10 12:49:59;;;;;;;0.90;0.50;;;24.20;92.80;;;;;;5034949;28;20045;-74
2022/09/10 12:53:00;;;;;;;0.32;0.20;;;24.00;92.60;;;;;;5044709;28;20898;-73
2022/09/10 12:55:58;;;;;;;0.85;0.38;;;24.30;93.30;;;;;;5046886;28;20494;-73
2022/09/10 12:59:01;;;;;;;0.70;0.35;;;24.10;93.20;;;;;;5045321;28;20025;-74
2022/09/10 13:01:48;;;;;;;0.40;0.25;;;24.10;93.50;;;;;;5041007;28;20037;-73
2022/09/10 13:04:31;;;;;;;0.80;0.40;;;24.50;93.30;;;;;;5045349;28;20028;-74
2022/09/10 13:07:01;;;;;;;0.93;0.47;;;24.40;92.30;;;;;;5046387;28;20101;-74
2022/09/10 13:09:36;;;;;;;1.13;0.40;;;24.70;92.70;;;;;;5046413;28;20033;-73
2022/09/10 13:12:17;;;;;;;0.77;0.30;;;24.90;91.60;;;;;;5046354;28;20052;-73